Airfield :
LOGIN :

Register | Disclaimer

   EN    FR    IT 

 










Legend :    VFR   Marginal VFR   IFR   Intensive IFR   Very Intensive IFR
Visi :
Ceiling :
>= 8 km
>= 3000ft
5 to 8 km
1000 to 3000 ft
1500m to 5 km
500 to 1000 ft
800 to 1500m
200 to 500 ft
< 800m
< 200 ft
Symbols :   Thunderstorms  Fog  Heavy snow  Heavy precipitations  Wind > 20 kt
SIGMETs :     Misc.  Thunderstorms  Icing  Turbulence  Mountain Waves  Volcanic Ashes






- Airport Elevation : 289 ft
- IATA code : ZAD


LDZD - Zadar

CURRENT METAR :
  • 070400Z 08003KT 040V110 9999 FEW020 SCT040 OVC065 10/10 Q1011 RERA

EXPIRED METARs :
  • 070330Z 08004KT 9999 -RA SCT020 OVC050 10/10 Q1011
  • 070300Z 11006KT 070V140 9999 -RA SCT015 SCT020 OVC050 10/10 Q1012 RERA
  • 070230Z 07007KT 030V100 9999 -RA SCT020 OVC040 10/10 Q1012
  • 070200Z 07008KT 9999 -RA SCT020 BKN040 OVC070 10/10 Q1013 RERA
  • 070130Z VRB03KT 9999 RA SCT020 BKN040 OVC070 10/10 Q1013

TAF TAF LDZD
Valid from the 07 at 00:00 until the 08 at 00:00 UTC


062325Z 0700/0800 14005KT 9999 FEW030 BKN040 TX13/0713Z TN08/0722Z
TEMPO 0700/0717 RA
PROB40
TEMPO 0700/0713 08010KT 4000 +TSRA FEW025CB BKN030



MET'MAP, your aeronautical weather chart ! - Copyright ORBIFLY December 2007 - Disclaimer

ORBIFLY MET'MAP TEAM :

Programming & Development : Alexandra Zaïnal
Original concept : Baudouin d'Aumeries
Technical & hardware support : Manuel Goepfert
Assistance : Marc-Olivier Méhu




SOURCES & CREDITS :

   NOAA